sensor_id;sensor_type;location;lat;lon;timestamp;P1;durP1;ratioP1;P2;durP2;ratioP2
46491;SDS011;32206;51.446;6.792;2022-10-31T00:00:59;12.65;;;7.75;;
46491;SDS011;32206;51.446;6.792;2022-10-31T00:03:25;13.25;;;7.45;;
46491;SDS011;32206;51.446;6.792;2022-10-31T00:05:51;14.25;;;7.07;;
46491;SDS011;32206;51.446;6.792;2022-10-31T00:08:17;9.35;;;6.97;;
46491;SDS011;32206;51.446;6.792;2022-10-31T00:10:44;19.27;;;7.85;;
46491;SDS011;32206;51.446;6.792;2022-10-31T00:13:11;10.60;;;7.30;;
46491;SDS011;32206;51.446;6.792;2022-10-31T00:15:37;12.80;;;7.97;;
46491;SDS011;32206;51.446;6.792;2022-10-31T00:18:04;16.20;;;8.00;;
46491;SDS011;32206;51.446;6.792;2022-10-31T00:20:31;16.55;;;7.55;;
46491;SDS011;32206;51.446;6.792;2022-10-31T00:22:58;15.55;;;7.82;;
46491;SDS011;32206;51.446;6.792;2022-10-31T00:25:24;14.93;;;7.53;;
46491;SDS011;32206;51.446;6.792;2022-10-31T00:27:50;21.33;;;8.48;;
46491;SDS011;32206;51.446;6.792;2022-10-31T00:30:16;15.50;;;7.32;;
46491;SDS011;32206;51.446;6.792;2022-10-31T00:32:41;13.98;;;7.97;;
46491;SDS011;32206;51.446;6.792;2022-10-31T00:35:07;16.08;;;7.28;;
46491;SDS011;32206;51.446;6.792;2022-10-31T00:37:33;11.55;;;7.47;;
46491;SDS011;32206;51.446;6.792;2022-10-31T00:39:58;14.80;;;8.75;;
46491;SDS011;32206;51.446;6.792;2022-10-31T00:42:24;13.30;;;7.72;;
46491;SDS011;32206;51.446;6.792;2022-10-31T00:44:50;12.98;;;7.68;;
46491;SDS011;32206;51.446;6.792;2022-10-31T00:47:15;17.05;;;8.02;;
46491;SDS011;32206;51.446;6.792;2022-10-31T00:49:41;14.43;;;7.85;;
46491;SDS011;32206;51.446;6.792;2022-10-31T00:52:06;12.65;;;8.02;;
46491;SDS011;32206;51.446;6.792;2022-10-31T00:54:32;14.73;;;8.85;;
46491;SDS011;32206;51.446;6.792;2022-10-31T00:56:58;21.77;;;8.32;;
46491;SDS011;32206;51.446;6.792;2022-10-31T00:59:23;12.25;;;6.80;;
46491;SDS011;32206;51.446;6.792;2022-10-31T01:01:49;15.90;;;8.00;;
46491;SDS011;32206;51.446;6.792;2022-10-31T01:04:14;16.95;;;7.95;;
46491;SDS011;32206;51.446;6.792;2022-10-31T01:06:40;19.15;;;7.97;;
46491;SDS011;32206;51.446;6.792;2022-10-31T01:09:06;15.57;;;7.40;;
46491;SDS011;32206;51.446;6.792;2022-10-31T01:11:32;15.13;;;7.93;;
46491;SDS011;32206;51.446;6.792;2022-10-31T01:13:58;14.70;;;7.95;;
46491;SDS011;32206;51.446;6.792;2022-10-31T01:16:24;15.63;;;7.22;;
46491;SDS011;32206;51.446;6.792;2022-10-31T01:18:51;12.25;;;7.50;;
46491;SDS011;32206;51.446;6.792;2022-10-31T01:21:18;14.55;;;7.63;;
46491;SDS011;32206;51.446;6.792;2022-10-31T01:23:45;11.63;;;6.75;;
46491;SDS011;32206;51.446;6.792;2022-10-31T01:28:39;16.63;;;8.18;;
46491;SDS011;32206;51.446;6.792;2022-10-31T01:31:09;16.35;;;7.70;;
46491;SDS011;32206;51.446;6.792;2022-10-31T01:33:35;19.58;;;8.98;;
46491;SDS011;32206;51.446;6.792;2022-10-31T01:36:01;14.57;;;8.98;;
46491;SDS011;32206;51.446;6.792;2022-10-31T01:38:36;17.67;;;8.23;;
46491;SDS011;32206;51.446;6.792;2022-10-31T01:41:01;14.30;;;8.02;;
46491;SDS011;32206;51.446;6.792;2022-10-31T01:43:47;24.35;;;9.05;;
46491;SDS011;32206;51.446;6.792;2022-10-31T01:46:25;17.92;;;7.95;;
46491;SDS011;32206;51.446;6.792;2022-10-31T01:49:01;15.45;;;8.02;;
46491;SDS011;32206;51.446;6.792;2022-10-31T01:54:08;15.48;;;8.88;;
46491;SDS011;32206;51.446;6.792;2022-10-31T01:56:37;20.83;;;8.35;;
46491;SDS011;32206;51.446;6.792;2022-10-31T01:59:09;17.23;;;8.85;;
46491;SDS011;32206;51.446;6.792;2022-10-31T02:01:38;22.42;;;8.23;;
46491;SDS011;32206;51.446;6.792;2022-10-31T02:04:03;11.90;;;7.60;;
46491;SDS011;32206;51.446;6.792;2022-10-31T02:07:18;15.07;;;7.75;;
46491;SDS011;32206;51.446;6.792;2022-10-31T02:09:31;16.05;;;7.65;;
46491;SDS011;32206;51.446;6.792;2022-10-31T02:11:58;14.60;;;7.35;;
46491;SDS011;32206;51.446;6.792;2022-10-31T02:14:25;12.07;;;7.65;;
46491;SDS011;32206;51.446;6.792;2022-10-31T02:16:55;14.68;;;6.80;;
46491;SDS011;32206;51.446;6.792;2022-10-31T02:19:43;21.73;;;8.52;;
46491;SDS011;32206;51.446;6.792;2022-10-31T02:22:31;16.13;;;7.43;;
46491;SDS011;32206;51.446;6.792;2022-10-31T02:36:10;12.05;;;8.00;;
46491;SDS011;32206;51.446;6.792;2022-10-31T02:41:37;14.77;;;7.35;;
46491;SDS011;32206;51.446;6.792;2022-10-31T02:44:30;9.75;;;6.90;;
46491;SDS011;32206;51.446;6.792;2022-10-31T02:47:16;12.75;;;7.50;;
46491;SDS011;32206;51.446;6.792;2022-10-31T02:49:45;14.00;;;7.47;;
46491;SDS011;32206;51.446;6.792;2022-10-31T02:52:23;12.57;;;7.30;;
46491;SDS011;32206;51.446;6.792;2022-10-31T02:54:50;14.27;;;7.57;;
46491;SDS011;32206;51.446;6.792;2022-10-31T02:57:18;15.23;;;7.90;;
46491;SDS011;32206;51.446;6.792;2022-10-31T02:59:48;14.75;;;7.10;;
46491;SDS011;32206;51.446;6.792;2022-10-31T03:02:27;17.80;;;7.53;;
46491;SDS011;32206;51.446;6.792;2022-10-31T03:07:51;14.73;;;7.30;;
46491;SDS011;32206;51.446;6.792;2022-10-31T03:10:30;12.23;;;7.32;;
46491;SDS011;32206;51.446;6.792;2022-10-31T03:13:12;11.32;;;7.03;;
46491;SDS011;32206;51.446;6.792;2022-10-31T03:15:49;17.00;;;7.53;;
46491;SDS011;32206;51.446;6.792;2022-10-31T03:18:29;13.60;;;8.48;;
46491;SDS011;32206;51.446;6.792;2022-10-31T03:21:04;11.68;;;7.25;;
46491;SDS011;32206;51.446;6.792;2022-10-31T03:23:44;11.00;;;6.90;;
46491;SDS011;32206;51.446;6.792;2022-10-31T03:26:11;15.32;;;7.10;;
46491;SDS011;32206;51.446;6.792;2022-10-31T03:28:41;11.20;;;7.20;;
46491;SDS011;32206;51.446;6.792;2022-10-31T03:31:12;11.35;;;7.28;;
46491;SDS011;32206;51.446;6.792;2022-10-31T03:33:41;13.93;;;6.15;;
46491;SDS011;32206;51.446;6.792;2022-10-31T03:36:09;16.02;;;8.18;;
46491;SDS011;32206;51.446;6.792;2022-10-31T03:38:37;14.07;;;6.65;;
46491;SDS011;32206;51.446;6.792;2022-10-31T03:41:04;12.15;;;7.50;;
46491;SDS011;32206;51.446;6.792;2022-10-31T03:43:36;16.60;;;7.20;;
46491;SDS011;32206;51.446;6.792;2022-10-31T03:46:11;11.65;;;7.18;;
46491;SDS011;32206;51.446;6.792;2022-10-31T03:48:37;16.20;;;6.97;;
46491;SDS011;32206;51.446;6.792;2022-10-31T03:51:07;15.15;;;8.18;;
46491;SDS011;32206;51.446;6.792;2022-10-31T03:53:53;12.82;;;8.35;;
46491;SDS011;32206;51.446;6.792;2022-10-31T03:56:41;15.40;;;7.70;;
46491;SDS011;32206;51.446;6.792;2022-10-31T03:59:23;11.77;;;8.25;;
46491;SDS011;32206;51.446;6.792;2022-10-31T04:01:56;12.77;;;7.50;;
46491;SDS011;32206;51.446;6.792;2022-10-31T04:04:26;21.38;;;8.02;;
46491;SDS011;32206;51.446;6.792;2022-10-31T04:06:54;15.73;;;7.32;;
46491;SDS011;32206;51.446;6.792;2022-10-31T04:09:23;12.82;;;7.53;;
46491;SDS011;32206;51.446;6.792;2022-10-31T04:11:51;11.88;;;8.18;;
46491;SDS011;32206;51.446;6.792;2022-10-31T04:14:19;17.92;;;7.70;;
46491;SDS011;32206;51.446;6.792;2022-10-31T04:16:47;16.05;;;8.35;;
46491;SDS011;32206;51.446;6.792;2022-10-31T04:19:13;14.82;;;9.02;;
46491;SDS011;32206;51.446;6.792;2022-10-31T04:21:39;13.25;;;9.13;;
46491;SDS011;32206;51.446;6.792;2022-10-31T04:24:08;16.92;;;8.02;;
46491;SDS011;32206;51.446;6.792;2022-10-31T04:26:34;9.35;;;6.95;;
46491;SDS011;32206;51.446;6.792;2022-10-31T04:29:00;19.02;;;9.45;;
46491;SDS011;32206;51.446;6.792;2022-10-31T04:31:25;17.70;;;9.25;;
46491;SDS011;32206;51.446;6.792;2022-10-31T04:33:51;16.15;;;9.07;;
46491;SDS011;32206;51.446;6.792;2022-10-31T04:36:17;15.73;;;8.82;;
46491;SDS011;32206;51.446;6.792;2022-10-31T04:38:43;16.58;;;8.88;;
46491;SDS011;32206;51.446;6.792;2022-10-31T04:41:11;16.17;;;9.48;;
46491;SDS011;32206;51.446;6.792;2022-10-31T04:43:37;13.50;;;8.50;;
46491;SDS011;32206;51.446;6.792;2022-10-31T04:46:02;14.27;;;8.70;;
46491;SDS011;32206;51.446;6.792;2022-10-31T04:48:29;21.33;;;9.00;;
46491;SDS011;32206;51.446;6.792;2022-10-31T04:50:59;12.40;;;8.55;;
46491;SDS011;32206;51.446;6.792;2022-10-31T04:53:25;15.45;;;7.65;;
46491;SDS011;32206;51.446;6.792;2022-10-31T04:55:51;18.58;;;8.23;;
46491;SDS011;32206;51.446;6.792;2022-10-31T04:58:16;15.18;;;7.82;;
46491;SDS011;32206;51.446;6.792;2022-10-31T05:00:42;12.57;;;7.85;;
46491;SDS011;32206;51.446;6.792;2022-10-31T05:03:07;14.70;;;7.80;;
46491;SDS011;32206;51.446;6.792;2022-10-31T05:05:33;11.32;;;7.18;;
46491;SDS011;32206;51.446;6.792;2022-10-31T05:07:59;23.55;;;8.73;;
46491;SDS011;32206;51.446;6.792;2022-10-31T05:10:25;14.07;;;7.63;;
46491;SDS011;32206;51.446;6.792;2022-10-31T05:12:54;13.68;;;7.97;;
46491;SDS011;32206;51.446;6.792;2022-10-31T05:15:22;21.33;;;8.55;;
46491;SDS011;32206;51.446;6.792;2022-10-31T05:17:48;18.50;;;8.27;;
46491;SDS011;32206;51.446;6.792;2022-10-31T05:20:15;29.25;;;8.38;;
46491;SDS011;32206;51.446;6.792;2022-10-31T05:22:46;17.10;;;8.70;;
46491;SDS011;32206;51.446;6.792;2022-10-31T05:25:13;18.33;;;9.05;;
46491;SDS011;32206;51.446;6.792;2022-10-31T05:27:39;12.93;;;8.70;;
46491;SDS011;32206;51.446;6.792;2022-10-31T05:30:06;18.20;;;8.52;;
46491;SDS011;32206;51.446;6.792;2022-10-31T05:32:39;12.65;;;8.15;;
46491;SDS011;32206;51.446;6.792;2022-10-31T05:35:06;15.88;;;9.52;;
46491;SDS011;32206;51.446;6.792;2022-10-31T05:37:36;26.25;;;16.88;;
46491;SDS011;32206;51.446;6.792;2022-10-31T05:40:03;20.90;;;13.00;;
46491;SDS011;32206;51.446;6.792;2022-10-31T05:42:29;17.15;;;9.95;;
46491;SDS011;32206;51.446;6.792;2022-10-31T05:44:55;18.33;;;9.23;;
46491;SDS011;32206;51.446;6.792;2022-10-31T05:47:20;15.10;;;7.35;;
46491;SDS011;32206;51.446;6.792;2022-10-31T05:49:46;12.18;;;7.55;;
46491;SDS011;32206;51.446;6.792;2022-10-31T05:52:11;15.63;;;8.07;;
46491;SDS011;32206;51.446;6.792;2022-10-31T05:54:37;13.52;;;8.05;;
46491;SDS011;32206;51.446;6.792;2022-10-31T05:57:03;18.80;;;8.55;;
46491;SDS011;32206;51.446;6.792;2022-10-31T05:59:28;13.55;;;7.60;;
46491;SDS011;32206;51.446;6.792;2022-10-31T06:01:54;11.10;;;7.07;;
46491;SDS011;32206;51.446;6.792;2022-10-31T06:04:19;12.18;;;7.85;;
46491;SDS011;32206;51.446;6.792;2022-10-31T06:06:45;15.05;;;9.00;;
46491;SDS011;32206;51.446;6.792;2022-10-31T06:09:11;17.23;;;8.98;;
46491;SDS011;32206;51.446;6.792;2022-10-31T06:11:36;17.58;;;8.48;;
46491;SDS011;32206;51.446;6.792;2022-10-31T06:14:02;17.38;;;7.88;;
46491;SDS011;32206;51.446;6.792;2022-10-31T06:16:28;23.88;;;10.25;;
46491;SDS011;32206;51.446;6.792;2022-10-31T06:18:54;22.50;;;12.48;;
46491;SDS011;32206;51.446;6.792;2022-10-31T06:21:19;25.55;;;11.35;;
46491;SDS011;32206;51.446;6.792;2022-10-31T06:23:45;17.98;;;8.77;;
46491;SDS011;32206;51.446;6.792;2022-10-31T06:26:11;14.32;;;8.75;;
46491;SDS011;32206;51.446;6.792;2022-10-31T06:28:36;18.63;;;8.32;;
46491;SDS011;32206;51.446;6.792;2022-10-31T06:31:02;16.85;;;8.40;;
46491;SDS011;32206;51.446;6.792;2022-10-31T06:33:27;17.92;;;9.25;;
46491;SDS011;32206;51.446;6.792;2022-10-31T06:35:53;14.63;;;7.95;;
46491;SDS011;32206;51.446;6.792;2022-10-31T06:38:18;15.38;;;8.73;;
46491;SDS011;32206;51.446;6.792;2022-10-31T06:40:44;13.15;;;8.80;;
46491;SDS011;32206;51.446;6.792;2022-10-31T06:43:10;19.88;;;9.00;;
46491;SDS011;32206;51.446;6.792;2022-10-31T06:45:36;15.48;;;9.65;;
46491;SDS011;32206;51.446;6.792;2022-10-31T06:48:02;18.15;;;8.20;;
46491;SDS011;32206;51.446;6.792;2022-10-31T06:50:28;13.23;;;7.65;;
46491;SDS011;32206;51.446;6.792;2022-10-31T06:52:55;13.30;;;7.45;;
46491;SDS011;32206;51.446;6.792;2022-10-31T06:55:22;15.88;;;9.10;;
46491;SDS011;32206;51.446;6.792;2022-10-31T06:57:56;15.15;;;8.93;;
46491;SDS011;32206;51.446;6.792;2022-10-31T07:00:26;13.82;;;8.25;;
46491;SDS011;32206;51.446;6.792;2022-10-31T07:02:54;18.48;;;8.75;;
46491;SDS011;32206;51.446;6.792;2022-10-31T07:05:20;14.60;;;8.90;;
46491;SDS011;32206;51.446;6.792;2022-10-31T07:07:46;15.40;;;7.55;;
46491;SDS011;32206;51.446;6.792;2022-10-31T07:10:11;21.92;;;9.70;;
46491;SDS011;32206;51.446;6.792;2022-10-31T07:12:37;15.32;;;9.15;;
46491;SDS011;32206;51.446;6.792;2022-10-31T07:15:03;18.73;;;9.13;;
46491;SDS011;32206;51.446;6.792;2022-10-31T07:17:29;18.48;;;8.95;;
46491;SDS011;32206;51.446;6.792;2022-10-31T07:19:55;15.07;;;9.10;;
46491;SDS011;32206;51.446;6.792;2022-10-31T07:22:21;21.60;;;9.75;;
46491;SDS011;32206;51.446;6.792;2022-10-31T07:24:46;14.90;;;8.90;;
46491;SDS011;32206;51.446;6.792;2022-10-31T07:27:12;15.32;;;8.32;;
46491;SDS011;32206;51.446;6.792;2022-10-31T07:29:38;18.52;;;9.00;;
46491;SDS011;32206;51.446;6.792;2022-10-31T07:32:03;24.48;;;11.02;;
46491;SDS011;32206;51.446;6.792;2022-10-31T07:34:29;25.05;;;14.68;;
46491;SDS011;32206;51.446;6.792;2022-10-31T07:36:55;25.48;;;13.32;;
46491;SDS011;32206;51.446;6.792;2022-10-31T07:39:20;21.38;;;10.80;;
46491;SDS011;32206;51.446;6.792;2022-10-31T07:41:46;19.48;;;9.70;;
46491;SDS011;32206;51.446;6.792;2022-10-31T07:44:11;15.10;;;8.50;;
46491;SDS011;32206;51.446;6.792;2022-10-31T07:46:37;21.75;;;9.38;;
46491;SDS011;32206;51.446;6.792;2022-10-31T07:49:03;12.65;;;8.38;;
46491;SDS011;32206;51.446;6.792;2022-10-31T07:51:28;14.95;;;8.27;;
46491;SDS011;32206;51.446;6.792;2022-10-31T07:53:54;23.45;;;9.07;;
46491;SDS011;32206;51.446;6.792;2022-10-31T07:56:20;17.17;;;8.52;;
46491;SDS011;32206;51.446;6.792;2022-10-31T07:58:45;18.05;;;8.90;;
46491;SDS011;32206;51.446;6.792;2022-10-31T08:01:14;16.35;;;8.85;;
46491;SDS011;32206;51.446;6.792;2022-10-31T08:03:39;19.30;;;9.98;;
46491;SDS011;32206;51.446;6.792;2022-10-31T08:06:05;17.38;;;9.30;;
46491;SDS011;32206;51.446;6.792;2022-10-31T08:08:30;16.80;;;9.98;;
46491;SDS011;32206;51.446;6.792;2022-10-31T08:10:57;20.27;;;9.52;;
46491;SDS011;32206;51.446;6.792;2022-10-31T08:13:23;16.05;;;9.70;;
46491;SDS011;32206;51.446;6.792;2022-10-31T08:15:48;21.13;;;9.75;;
46491;SDS011;32206;51.446;6.792;2022-10-31T08:18:16;20.42;;;10.45;;
46491;SDS011;32206;51.446;6.792;2022-10-31T08:20:43;18.17;;;10.35;;
46491;SDS011;32206;51.446;6.792;2022-10-31T08:23:09;16.85;;;10.07;;
46491;SDS011;32206;51.446;6.792;2022-10-31T08:25:36;21.08;;;10.80;;
46491;SDS011;32206;51.446;6.792;2022-10-31T08:28:02;23.55;;;10.93;;
46491;SDS011;32206;51.446;6.792;2022-10-31T08:30:29;25.88;;;11.25;;
46491;SDS011;32206;51.446;6.792;2022-10-31T08:35:28;18.63;;;10.93;;
46491;SDS011;32206;51.446;6.792;2022-10-31T08:37:55;18.20;;;10.77;;
46491;SDS011;32206;51.446;6.792;2022-10-31T08:40:22;19.98;;;10.18;;
46491;SDS011;32206;51.446;6.792;2022-10-31T08:42:55;22.10;;;10.80;;
46491;SDS011;32206;51.446;6.792;2022-10-31T08:45:24;43.08;;;22.30;;
46491;SDS011;32206;51.446;6.792;2022-10-31T08:47:50;23.33;;;14.88;;
46491;SDS011;32206;51.446;6.792;2022-10-31T08:50:16;29.83;;;13.13;;
46491;SDS011;32206;51.446;6.792;2022-10-31T08:52:42;21.30;;;11.25;;
46491;SDS011;32206;51.446;6.792;2022-10-31T08:55:08;23.33;;;10.73;;
46491;SDS011;32206;51.446;6.792;2022-10-31T08:57:33;24.25;;;12.57;;
46491;SDS011;32206;51.446;6.792;2022-10-31T08:59:59;24.52;;;11.65;;
46491;SDS011;32206;51.446;6.792;2022-10-31T09:02:25;25.33;;;13.13;;
46491;SDS011;32206;51.446;6.792;2022-10-31T09:04:50;30.27;;;12.10;;
46491;SDS011;32206;51.446;6.792;2022-10-31T09:07:16;24.40;;;11.38;;
46491;SDS011;32206;51.446;6.792;2022-10-31T09:09:41;19.38;;;11.18;;
46491;SDS011;32206;51.446;6.792;2022-10-31T09:12:07;20.30;;;11.43;;
46491;SDS011;32206;51.446;6.792;2022-10-31T09:14:33;23.08;;;12.00;;
46491;SDS011;32206;51.446;6.792;2022-10-31T09:16:58;20.58;;;11.07;;
46491;SDS011;32206;51.446;6.792;2022-10-31T09:19:24;21.27;;;12.63;;
46491;SDS011;32206;51.446;6.792;2022-10-31T09:21:53;78.45;;;16.17;;
46491;SDS011;32206;51.446;6.792;2022-10-31T09:24:19;34.75;;;12.95;;
46491;SDS011;32206;51.446;6.792;2022-10-31T09:26:45;25.63;;;11.57;;
46491;SDS011;32206;51.446;6.792;2022-10-31T09:29:10;18.45;;;11.82;;
46491;SDS011;32206;51.446;6.792;2022-10-31T09:31:36;28.27;;;13.60;;
46491;SDS011;32206;51.446;6.792;2022-10-31T09:34:02;24.88;;;12.93;;
46491;SDS011;32206;51.446;6.792;2022-10-31T09:36:27;22.08;;;13.38;;
46491;SDS011;32206;51.446;6.792;2022-10-31T09:38:53;25.63;;;12.65;;
46491;SDS011;32206;51.446;6.792;2022-10-31T09:44:24;26.63;;;13.65;;
46491;SDS011;32206;51.446;6.792;2022-10-31T09:47:03;23.13;;;14.15;;
46491;SDS011;32206;51.446;6.792;2022-10-31T09:52:24;28.70;;;14.05;;
46491;SDS011;32206;51.446;6.792;2022-10-31T09:55:00;32.22;;;15.13;;
46491;SDS011;32206;51.446;6.792;2022-10-31T09:57:34;21.45;;;12.88;;
46491;SDS011;32206;51.446;6.792;2022-10-31T10:00:05;28.45;;;14.88;;
46491;SDS011;32206;51.446;6.792;2022-10-31T10:05:21;28.05;;;14.55;;
46491;SDS011;32206;51.446;6.792;2022-10-31T10:07:55;31.33;;;15.43;;
46491;SDS011;32206;51.446;6.792;2022-10-31T10:19:14;28.65;;;15.35;;
46491;SDS011;32206;51.446;6.792;2022-10-31T10:30:13;32.00;;;14.98;;
46491;SDS011;32206;51.446;6.792;2022-10-31T10:32:45;32.90;;;17.15;;
46491;SDS011;32206;51.446;6.792;2022-10-31T10:37:49;32.92;;;19.13;;
46491;SDS011;32206;51.446;6.792;2022-10-31T10:40:28;30.73;;;16.33;;
46491;SDS011;32206;51.446;6.792;2022-10-31T10:49:00;29.83;;;16.50;;
46491;SDS011;32206;51.446;6.792;2022-10-31T10:54:41;33.28;;;16.35;;
46491;SDS011;32206;51.446;6.792;2022-10-31T10:59:46;27.38;;;15.88;;
46491;SDS011;32206;51.446;6.792;2022-10-31T11:02:31;31.40;;;16.25;;
46491;SDS011;32206;51.446;6.792;2022-10-31T11:04:58;40.28;;;15.73;;
46491;SDS011;32206;51.446;6.792;2022-10-31T11:07:37;26.75;;;16.10;;
46491;SDS011;32206;51.446;6.792;2022-10-31T11:10:05;30.00;;;15.52;;
46491;SDS011;32206;51.446;6.792;2022-10-31T11:12:38;30.83;;;14.55;;
46491;SDS011;32206;51.446;6.792;2022-10-31T11:15:16;29.85;;;14.18;;
46491;SDS011;32206;51.446;6.792;2022-10-31T11:17:47;29.95;;;15.05;;
46491;SDS011;32206;51.446;6.792;2022-10-31T11:22:44;27.38;;;14.60;;
46491;SDS011;32206;51.446;6.792;2022-10-31T11:25:19;29.42;;;14.43;;
46491;SDS011;32206;51.446;6.792;2022-10-31T11:28:03;27.90;;;15.30;;
46491;SDS011;32206;51.446;6.792;2022-10-31T11:30:31;25.75;;;14.25;;
46491;SDS011;32206;51.446;6.792;2022-10-31T11:33:11;28.10;;;13.52;;
46491;SDS011;32206;51.446;6.792;2022-10-31T11:35:48;25.70;;;12.10;;
46491;SDS011;32206;51.446;6.792;2022-10-31T11:38:17;29.65;;;12.38;;
46491;SDS011;32206;51.446;6.792;2022-10-31T11:40:55;26.63;;;14.65;;
46491;SDS011;32206;51.446;6.792;2022-10-31T11:43:46;21.38;;;13.32;;
46491;SDS011;32206;51.446;6.792;2022-10-31T11:46:23;22.52;;;12.43;;
46491;SDS011;32206;51.446;6.792;2022-10-31T11:48:59;24.88;;;12.48;;
46491;SDS011;32206;51.446;6.792;2022-10-31T11:51:30;30.95;;;12.48;;
46491;SDS011;32206;51.446;6.792;2022-10-31T11:53:58;24.92;;;12.65;;
46491;SDS011;32206;51.446;6.792;2022-10-31T11:56:27;30.17;;;12.27;;
46491;SDS011;32206;51.446;6.792;2022-10-31T11:59:03;30.30;;;12.57;;
46491;SDS011;32206;51.446;6.792;2022-10-31T12:01:32;23.00;;;11.70;;
46491;SDS011;32206;51.446;6.792;2022-10-31T12:06:24;19.40;;;11.05;;
46491;SDS011;32206;51.446;6.792;2022-10-31T12:09:00;21.60;;;11.23;;
46491;SDS011;32206;51.446;6.792;2022-10-31T12:24:54;17.42;;;9.88;;
46491;SDS011;32206;51.446;6.792;2022-10-31T12:30:17;16.30;;;9.65;;
46491;SDS011;32206;51.446;6.792;2022-10-31T12:35:46;21.23;;;9.52;;
46491;SDS011;32206;51.446;6.792;2022-10-31T13:00:39;19.90;;;9.02;;
46491;SDS011;32206;51.446;6.792;2022-10-31T13:06:29;18.08;;;7.90;;
46491;SDS011;32206;51.446;6.792;2022-10-31T13:09:05;14.88;;;7.57;;
46491;SDS011;32206;51.446;6.792;2022-10-31T13:11:36;17.52;;;7.63;;
46491;SDS011;32206;51.446;6.792;2022-10-31T13:14:09;14.55;;;7.25;;
46491;SDS011;32206;51.446;6.792;2022-10-31T13:16:38;19.42;;;8.15;;
46491;SDS011;32206;51.446;6.792;2022-10-31T13:24:42;11.18;;;7.03;;
46491;SDS011;32206;51.446;6.792;2022-10-31T13:32:50;10.07;;;6.40;;
46491;SDS011;32206;51.446;6.792;2022-10-31T13:40:50;9.77;;;4.73;;
46491;SDS011;32206;51.446;6.792;2022-10-31T13:43:20;13.60;;;4.72;;
46491;SDS011;32206;51.446;6.792;2022-10-31T13:45:59;21.50;;;5.10;;
46491;SDS011;32206;51.446;6.792;2022-10-31T13:53:22;9.15;;;3.90;;
46491;SDS011;32206;51.446;6.792;2022-10-31T13:56:19;14.73;;;5.03;;
46491;SDS011;32206;51.446;6.792;2022-10-31T13:58:57;13.02;;;4.38;;
46491;SDS011;32206;51.446;6.792;2022-10-31T14:01:24;12.57;;;4.45;;
46491;SDS011;32206;51.446;6.792;2022-10-31T14:03:57;14.82;;;4.72;;
46491;SDS011;32206;51.446;6.792;2022-10-31T14:06:35;11.07;;;3.70;;
46491;SDS011;32206;51.446;6.792;2022-10-31T14:09:03;11.77;;;3.20;;
46491;SDS011;32206;51.446;6.792;2022-10-31T14:11:29;9.75;;;4.35;;
46491;SDS011;32206;51.446;6.792;2022-10-31T14:13:58;9.18;;;3.42;;
46491;SDS011;32206;51.446;6.792;2022-10-31T14:16:29;11.05;;;3.65;;
46491;SDS011;32206;51.446;6.792;2022-10-31T14:19:17;9.20;;;3.50;;
46491;SDS011;32206;51.446;6.792;2022-10-31T14:21:44;13.38;;;5.53;;
46491;SDS011;32206;51.446;6.792;2022-10-31T14:26:58;6.15;;;3.50;;
46491;SDS011;32206;51.446;6.792;2022-10-31T14:29:30;10.02;;;3.33;;
46491;SDS011;32206;51.446;6.792;2022-10-31T14:34:57;14.57;;;3.20;;
46491;SDS011;32206;51.446;6.792;2022-10-31T14:48:33;12.43;;;3.17;;
46491;SDS011;32206;51.446;6.792;2022-10-31T14:51:14;9.95;;;3.40;;
46491;SDS011;32206;51.446;6.792;2022-10-31T14:53:50;12.18;;;3.40;;
46491;SDS011;32206;51.446;6.792;2022-10-31T14:56:46;9.60;;;4.03;;
46491;SDS011;32206;51.446;6.792;2022-10-31T14:59:14;9.77;;;3.33;;
46491;SDS011;32206;51.446;6.792;2022-10-31T15:01:48;15.45;;;3.83;;
46491;SDS011;32206;51.446;6.792;2022-10-31T15:04:28;10.73;;;3.08;;
46491;SDS011;32206;51.446;6.792;2022-10-31T15:06:59;21.10;;;3.58;;
46491;SDS011;32206;51.446;6.792;2022-10-31T15:09:55;12.23;;;3.03;;
46491;SDS011;32206;51.446;6.792;2022-10-31T15:12:30;12.27;;;3.50;;
46491;SDS011;32206;51.446;6.792;2022-10-31T15:15:09;13.23;;;3.78;;
46491;SDS011;32206;51.446;6.792;2022-10-31T15:17:58;10.90;;;3.28;;
46491;SDS011;32206;51.446;6.792;2022-10-31T15:20:26;17.83;;;3.97;;
46491;SDS011;32206;51.446;6.792;2022-10-31T15:22:54;8.07;;;2.83;;
46491;SDS011;32206;51.446;6.792;2022-10-31T15:25:22;9.52;;;2.65;;
46491;SDS011;32206;51.446;6.792;2022-10-31T15:27:50;8.73;;;3.28;;
46491;SDS011;32206;51.446;6.792;2022-10-31T15:30:20;10.32;;;3.25;;
46491;SDS011;32206;51.446;6.792;2022-10-31T15:32:47;13.95;;;2.97;;
46491;SDS011;32206;51.446;6.792;2022-10-31T15:35:29;9.85;;;3.55;;
46491;SDS011;32206;51.446;6.792;2022-10-31T15:37:58;7.97;;;2.60;;
46491;SDS011;32206;51.446;6.792;2022-10-31T15:40:26;7.93;;;2.47;;
46491;SDS011;32206;51.446;6.792;2022-10-31T15:42:54;9.00;;;2.85;;
46491;SDS011;32206;51.446;6.792;2022-10-31T15:45:21;8.15;;;3.25;;
46491;SDS011;32206;51.446;6.792;2022-10-31T15:47:54;12.00;;;3.20;;
46491;SDS011;32206;51.446;6.792;2022-10-31T15:50:44;8.93;;;2.33;;
46491;SDS011;32206;51.446;6.792;2022-10-31T15:53:17;7.93;;;3.33;;
46491;SDS011;32206;51.446;6.792;2022-10-31T15:56:07;14.20;;;4.07;;
46491;SDS011;32206;51.446;6.792;2022-10-31T15:58:41;16.50;;;3.28;;
46491;SDS011;32206;51.446;6.792;2022-10-31T16:01:21;9.68;;;3.15;;
46491;SDS011;32206;51.446;6.792;2022-10-31T16:03:57;12.95;;;3.28;;
46491;SDS011;32206;51.446;6.792;2022-10-31T16:06:23;15.98;;;3.55;;
46491;SDS011;32206;51.446;6.792;2022-10-31T16:08:49;9.77;;;2.80;;
46491;SDS011;32206;51.446;6.792;2022-10-31T16:11:23;10.60;;;3.30;;
46491;SDS011;32206;51.446;6.792;2022-10-31T16:16:21;8.90;;;3.90;;
46491;SDS011;32206;51.446;6.792;2022-10-31T16:18:47;10.32;;;5.95;;
46491;SDS011;32206;51.446;6.792;2022-10-31T16:21:15;11.18;;;3.97;;
46491;SDS011;32206;51.446;6.792;2022-10-31T16:23:47;9.18;;;3.75;;
46491;SDS011;32206;51.446;6.792;2022-10-31T16:26:18;10.25;;;3.53;;
46491;SDS011;32206;51.446;6.792;2022-10-31T16:28:51;10.32;;;3.03;;
46491;SDS011;32206;51.446;6.792;2022-10-31T16:31:24;5.30;;;2.97;;
46491;SDS011;32206;51.446;6.792;2022-10-31T16:36:31;13.18;;;3.95;;
46491;SDS011;32206;51.446;6.792;2022-10-31T16:39:00;11.30;;;3.13;;
46491;SDS011;32206;51.446;6.792;2022-10-31T16:41:25;6.70;;;3.22;;
46491;SDS011;32206;51.446;6.792;2022-10-31T16:43:51;12.25;;;3.00;;
46491;SDS011;32206;51.446;6.792;2022-10-31T16:46:21;13.27;;;3.78;;
46491;SDS011;32206;51.446;6.792;2022-10-31T16:48:49;10.23;;;3.92;;
46491;SDS011;32206;51.446;6.792;2022-10-31T16:51:15;8.20;;;3.33;;
46491;SDS011;32206;51.446;6.792;2022-10-31T16:53:41;9.32;;;3.95;;
46491;SDS011;32206;51.446;6.792;2022-10-31T16:56:11;11.70;;;3.58;;
46491;SDS011;32206;51.446;6.792;2022-10-31T16:58:42;13.75;;;2.90;;
46491;SDS011;32206;51.446;6.792;2022-10-31T17:01:09;7.53;;;4.43;;
46491;SDS011;32206;51.446;6.792;2022-10-31T17:03:37;11.75;;;4.60;;
46491;SDS011;32206;51.446;6.792;2022-10-31T17:06:03;9.77;;;3.38;;
46491;SDS011;32206;51.446;6.792;2022-10-31T17:08:28;13.90;;;3.70;;
46491;SDS011;32206;51.446;6.792;2022-10-31T17:10:55;8.57;;;3.75;;
46491;SDS011;32206;51.446;6.792;2022-10-31T17:13:23;11.43;;;3.95;;
46491;SDS011;32206;51.446;6.792;2022-10-31T17:15:52;16.15;;;5.05;;
46491;SDS011;32206;51.446;6.792;2022-10-31T17:18:19;10.90;;;4.60;;
46491;SDS011;32206;51.446;6.792;2022-10-31T17:20:45;8.18;;;4.80;;
46491;SDS011;32206;51.446;6.792;2022-10-31T17:23:12;16.77;;;5.63;;
46491;SDS011;32206;51.446;6.792;2022-10-31T17:25:39;10.95;;;3.35;;